Malibu, CA

9:03 AM PST on January 27, 2015 (GMT -0800)
Pt. Dume - Dume Drive | Change Station
CLOSE
Current Station
Personal Weather Station
Location: Malibu, CA
Elevation: 213 ft
Nearby Weather Stations

Elev 213 ft 34.02 °N, 118.81 °W | Updated 13 minutes ago

Overcast
Overcast
61.1 °F
Feels Like 61.1 °F
N
1.0
Wind Variable Wind from ENE
Gusts 2.0 mph

Today
High -- | Low -- °F
--% Chance of Precip.
Yesterday
High -- | Low -- °F
Precip. -- in
6:55 AM 5:20 PM
First Quarter, 55% visible
Pressure 30.22 in
Visibility 8.0 miles
Clouds Few 4000 ft
Mostly Cloudy 6500 ft
Dew Point 56 °F
Humidity 83%
Rainfall 0.00 in
Snow Depth Not available.
UV 1 out of 12
Pollen 6.10 out of 12
Air Quality Not available.
Flu Activity Not available.
METAR KNTD 271656Z 03003KT 8SM FEW040 BKN065 17/13 A3021 RMK AO2 RAE12 SLP231 P0000 T01670133 $

More Conditions Fewer Conditions

Pressure 30.22 in
Visibility 8.0 miles
Clouds Few 4000 ft
Mostly Cloudy 6500 ft
Dew Point 56 °F
Humidity 83%
Rainfall 0.00 in
Snow Depth Not available.
UV 1 out of 12
Pollen 6.10 out of 12
Air Quality Not available.
Flu Activity Not available.
METAR KNTD 271656Z 03003KT 8SM FEW040 BKN065 17/13 A3021 RMK AO2 RAE12 SLP231 P0000 T01670133 $

More Conditions Fewer Conditions

10-Day Weather Forecast

Almanac

Astronomy

Jan. 27, 2015 Rise Set
Actual Time
Civil Twilight
Nautical Twilight
Astronomical Twilight
Moon
Length of Visible Light
Length of Day
Tomorrow will be .
, % of the Moon is Illuminated

Today's Extremes

State Highs State Lows

Community

WunderPhotos

Upload Photos

1,790,729 photos uploaded!

WunderBlogs® & News

Nearby

Air Quality

  Air Quality AQ Index Pollutant
Not available.

Snow Depth

Station Depth Elevation

Earthquake Activity

City Distance Mag. Time & Date
Minimum magnitude displayed is 2.5.

Coastal Water Temperatures

Place Temperature

Nearby Weather Stations